Time;durP1;ratioP1;P1;durP2;ratioP2;P2;SDS_P1;SDS_P2;PMS_P1;PMS_P2;Temp;Humidity;BMP_temperature;BMP_pressure;BME280_temperature;BME280_humidity;BME280_pressure;Samples;Min_cycle;Max_cycle;Signal;HPM_P1;HPM_P2
2023/06/27 00:00:56;;;;;;;;;;;15.50;60.30;;;;;;4157418;28;19913;-85
2023/06/27 00:02:58;;;;;;;;;;;15.50;60.30;;;;;;4157845;28;19913;-83
2023/06/27 00:05:05;;;;;;;;;;;15.40;60.50;;;;;;4153996;28;19913;-82
2023/06/27 00:07:09;;;;;;;;;;;15.40;60.40;;;;;;4139093;28;19917;-84
2023/06/27 00:09:10;;;;;;;;;;;15.40;60.40;;;;;;4156139;28;20825;-83
2023/06/27 00:11:11;;;;;;;;;;;15.40;60.40;;;;;;4136282;28;19961;-84
2023/06/27 00:13:15;;;;;;;;;;;15.40;60.50;;;;;;4147570;28;19972;-83
2023/06/27 00:15:18;;;;;;;;;;;15.30;60.50;;;;;;4155962;28;20407;-83
2023/06/27 00:17:23;;;;;;;;;;;15.30;60.50;;;;;;4143868;28;20024;-83
2023/06/27 00:19:23;;;;;;;;;;;15.30;60.70;;;;;;4156431;28;20009;-81
2023/06/27 00:21:28;;;;;;;;;;;15.30;60.70;;;;;;4160518;28;19913;-83
2023/06/27 00:23:33;;;;;;;;;;;15.30;60.70;;;;;;4157117;28;19924;-84
2023/06/27 00:25:33;;;;;;;;;;;15.20;60.80;;;;;;4155656;28;20196;-83
2023/06/27 00:27:34;;;;;;;;;;;15.20;60.90;;;;;;4129077;28;19918;-83
2023/06/27 00:29:36;;;;;;;;;;;15.10;60.80;;;;;;4127088;28;19917;-81
2023/06/27 00:31:37;;;;;;;;;;;15.20;60.90;;;;;;4145183;28;19913;-82
2023/06/27 00:33:57;;;;;;;;;;;15.20;60.80;;;;;;4150310;28;19917;-83
2023/06/27 00:35:58;;;;;;;;;;;15.10;60.80;;;;;;4143877;28;20271;-83
2023/06/27 00:38:01;;;;;;;;;;;15.10;60.70;;;;;;4128941;28;19937;-85
2023/06/27 00:40:20;;;;;;;;;;;15.10;60.80;;;;;;4147115;28;20037;-83
2023/06/27 00:42:41;;;;;;;;;;;15.00;61.00;;;;;;4140296;28;19925;-82
2023/06/27 00:45:02;;;;;;;;;;;15.00;61.00;;;;;;4156953;28;20125;-82
2023/06/27 00:47:21;;;;;;;;;;;15.00;61.00;;;;;;4161924;28;19921;-83
2023/06/27 00:49:22;;;;;;;;;;;15.00;61.20;;;;;;4158172;28;19980;-82
2023/06/27 00:51:22;;;;;;;;;;;15.00;61.30;;;;;;4123639;28;19968;-83
2023/06/27 00:53:23;;;;;;;;;;;14.90;61.20;;;;;;4157833;28;20020;-84
2023/06/27 00:55:28;;;;;;;;;;;15.00;61.30;;;;;;4144633;28;20386;-83
2023/06/27 00:57:29;;;;;;;;;;;14.90;61.30;;;;;;4140961;28;20406;-82
2023/06/27 00:59:33;;;;;;;;;;;14.90;61.20;;;;;;4158883;28;20294;-83
2023/06/27 01:01:33;;;;;;;;;;;14.90;61.00;;;;;;4159377;28;19971;-84
2023/06/27 01:03:34;;;;;;;;;;;14.90;61.20;;;;;;4157113;28;20404;-83
2023/06/27 01:05:35;;;;;;;;;;;14.90;61.20;;;;;;4160587;28;19917;-81
2023/06/27 01:07:51;;;;;;;;;;;14.90;61.20;;;;;;4142466;28;19917;-83
2023/06/27 01:09:52;;;;;;;;;;;14.80;61.20;;;;;;4128649;28;19928;-82
2023/06/27 01:11:57;;;;;;;;;;;14.80;61.10;;;;;;4144563;28;19918;-83
2023/06/27 01:13:59;;;;;;;;;;;14.80;61.00;;;;;;4155670;28;19913;-82
2023/06/27 01:16:00;;;;;;;;;;;14.80;61.00;;;;;;4143653;28;19917;-85
2023/06/27 01:18:01;;;;;;;;;;;14.70;61.10;;;;;;4162020;28;19924;-83
2023/06/27 01:20:02;;;;;;;;;;;14.70;61.00;;;;;;4142683;28;19925;-82
2023/06/27 01:22:06;;;;;;;;;;;14.60;61.00;;;;;;4156435;28;20403;-83
2023/06/27 01:24:10;;;;;;;;;;;14.70;61.20;;;;;;4142333;28;19918;-82
2023/06/27 01:26:14;;;;;;;;;;;14.60;61.00;;;;;;4157732;28;19917;-83
2023/06/27 01:28:15;;;;;;;;;;;14.60;61.10;;;;;;4144151;28;19921;-84
2023/06/27 01:30:17;;;;;;;;;;;14.60;61.20;;;;;;4158836;28;19917;-83
2023/06/27 01:32:24;;;;;;;;;;;14.60;61.20;;;;;;4141936;28;20549;-82
2023/06/27 01:34:31;;;;;;;;;;;14.50;61.20;;;;;;4157643;28;19917;-84
2023/06/27 01:36:35;;;;;;;;;;;14.50;61.10;;;;;;4146986;28;20380;-83
2023/06/27 01:38:56;;;;;;;;;;;14.50;61.20;;;;;;4143480;28;19924;-83
2023/06/27 01:40:59;;;;;;;;;;;14.50;61.10;;;;;;4141096;28;20020;-83
2023/06/27 01:43:03;;;;;;;;;;;14.40;61.10;;;;;;4123563;28;19949;-84
2023/06/27 01:45:24;;;;;;;;;;;14.40;61.30;;;;;;4155528;28;19914;-84
2023/06/27 01:47:44;;;;;;;;;;;14.40;61.40;;;;;;4160924;28;19935;-82
2023/06/27 01:50:09;;;;;;;;;;;14.40;61.30;;;;;;4159716;28;19917;-84
2023/06/27 01:52:29;;;;;;;;;;;14.30;61.00;;;;;;4144330;28;20077;-82
2023/06/27 01:54:50;;;;;;;;;;;14.30;61.30;;;;;;4156536;28;19921;-82
2023/06/27 01:57:14;;;;;;;;;;;14.20;61.20;;;;;;4158408;28;19913;-83
2023/06/27 01:59:34;;;;;;;;;;;14.30;61.10;;;;;;4148718;28;19929;-83
2023/06/27 02:01:55;;;;;;;;;;;14.20;61.40;;;;;;4145267;28;19909;-83
2023/06/27 02:04:15;;;;;;;;;;;14.20;61.60;;;;;;4156064;28;19924;-81
2023/06/27 02:06:36;;;;;;;;;;;14.20;61.70;;;;;;4156068;28;19921;-82
2023/06/27 02:08:57;;;;;;;;;;;14.20;61.80;;;;;;4159106;28;19909;-84
2023/06/27 02:11:20;;;;;;;;;;;14.20;61.80;;;;;;4159130;28;19909;-84
2023/06/27 02:13:41;;;;;;;;;;;14.20;61.90;;;;;;4146642;28;19963;-80
2023/06/27 02:16:01;;;;;;;;;;;14.10;61.90;;;;;;4150733;28;19976;-85
2023/06/27 02:18:22;;;;;;;;;;;14.10;62.00;;;;;;4143637;28;19922;-82
2023/06/27 02:20:42;;;;;;;;;;;14.10;63.00;;;;;;4156885;28;20008;-83
2023/06/27 02:23:03;;;;;;;;;;;14.10;62.20;;;;;;4151051;28;19948;-82
2023/06/27 02:25:24;;;;;;;;;;;14.00;62.40;;;;;;4145307;28;19909;-83
2023/06/27 02:27:47;;;;;;;;;;;14.00;62.20;;;;;;4143961;28;19918;-82
2023/06/27 02:29:48;;;;;;;;;;;14.00;62.10;;;;;;4142244;28;19936;-83
2023/06/27 02:31:48;;;;;;;;;;;14.10;62.30;;;;;;4158596;28;19913;-81
2023/06/27 02:33:49;;;;;;;;;;;14.00;62.20;;;;;;4160203;28;19989;-83
2023/06/27 02:35:50;;;;;;;;;;;14.00;62.30;;;;;;4161287;28;20287;-82
2023/06/27 02:37:53;;;;;;;;;;;14.00;62.30;;;;;;4159105;28;19917;-81
2023/06/27 02:39:54;;;;;;;;;;;14.00;62.30;;;;;;4131752;28;19921;-82
2023/06/27 02:41:55;;;;;;;;;;;13.90;62.40;;;;;;4163597;28;19917;-82
2023/06/27 02:43:55;;;;;;;;;;;13.90;62.40;;;;;;4160466;28;19966;-84
2023/06/27 02:45:57;;;;;;;;;;;13.90;62.60;;;;;;4146501;28;19960;-83
2023/06/27 02:48:07;;;;;;;;;;;13.90;62.80;;;;;;4161422;28;20406;-82
2023/06/27 02:50:07;;;;;;;;;;;13.90;62.70;;;;;;4161085;28;19927;-83
2023/06/27 02:52:09;;;;;;;;;;;13.80;62.50;;;;;;4155741;28;19913;-83
2023/06/27 02:54:09;;;;;;;;;;;13.80;62.60;;;;;;4141840;28;19952;-84
2023/06/27 02:56:10;;;;;;;;;;;13.80;62.60;;;;;;4156976;28;20383;-82
2023/06/27 02:58:14;;;;;;;;;;;13.80;62.90;;;;;;4147850;28;19924;-82
2023/06/27 03:00:15;;;;;;;;;;;13.80;62.60;;;;;;4142608;28;19913;-81
2023/06/27 03:02:16;;;;;;;;;;;13.70;62.40;;;;;;4161332;28;19950;-83
2023/06/27 03:04:22;;;;;;;;;;;13.80;62.30;;;;;;4145669;28;19928;-83
2023/06/27 03:06:24;;;;;;;;;;;13.70;62.60;;;;;;4156417;28;19913;-83
2023/06/27 03:08:25;;;;;;;;;;;13.70;62.50;;;;;;4160019;28;19967;-84
2023/06/27 03:10:25;;;;;;;;;;;13.60;62.60;;;;;;4161693;28;19917;-81
2023/06/27 03:12:27;;;;;;;;;;;13.60;62.60;;;;;;4177287;28;19917;-83
2023/06/27 03:14:29;;;;;;;;;;;13.60;62.70;;;;;;4145063;28;19913;-83
2023/06/27 03:16:29;;;;;;;;;;;13.60;62.70;;;;;;4160059;28;19916;-82
2023/06/27 03:18:30;;;;;;;;;;;13.60;63.00;;;;;;4159311;28;19917;-83
2023/06/27 03:20:46;;;;;;;;;;;13.60;63.10;;;;;;4159914;28;19920;-83
2023/06/27 03:23:06;;;;;;;;;;;13.50;63.30;;;;;;4156058;28;19964;-82
2023/06/27 03:25:10;;;;;;;;;;;13.60;63.40;;;;;;4162860;28;19940;-82
2023/06/27 03:27:30;;;;;;;;;;;13.40;63.70;;;;;;4162088;28;19913;-81
2023/06/27 03:29:51;;;;;;;;;;;13.50;63.60;;;;;;4148984;28;19925;-81
2023/06/27 03:32:13;;;;;;;;;;;13.50;63.60;;;;;;4161756;28;19917;-83
2023/06/27 03:34:33;;;;;;;;;;;13.40;63.60;;;;;;4160940;28;19913;-83
2023/06/27 03:36:54;;;;;;;;;;;13.50;63.70;;;;;;4162147;28;19920;-82
2023/06/27 03:39:15;;;;;;;;;;;13.40;64.00;;;;;;4157356;28;19917;-83
2023/06/27 03:41:35;;;;;;;;;;;13.40;64.10;;;;;;4159487;28;19914;-83
2023/06/27 03:43:56;;;;;;;;;;;13.40;63.90;;;;;;4159322;28;20004;-85
2023/06/27 03:46:17;;;;;;;;;;;13.40;64.10;;;;;;4144355;28;19967;-83
2023/06/27 03:48:38;;;;;;;;;;;13.40;64.20;;;;;;4158476;28;19921;-82
2023/06/27 03:50:59;;;;;;;;;;;13.40;64.40;;;;;;4156770;28;19921;-83
2023/06/27 03:53:20;;;;;;;;;;;13.50;65.00;;;;;;4146262;28;19917;-83
2023/06/27 03:55:22;;;;;;;;;;;13.50;65.20;;;;;;4145990;28;19956;-83
2023/06/27 03:57:42;;;;;;;;;;;13.50;65.90;;;;;;4145791;28;20433;-84
2023/06/27 04:00:07;;;;;;;;;;;13.60;66.20;;;;;;4158156;28;19920;-81
2023/06/27 04:02:30;;;;;;;;;;;13.60;66.40;;;;;;4160337;28;19995;-82
2023/06/27 04:04:39;;;;;;;;;;;13.60;66.90;;;;;;4126049;28;20449;-83
2023/06/27 04:07:02;;;;;;;;;;;13.70;67.30;;;;;;4144059;28;19949;-81
2023/06/27 04:09:22;;;;;;;;;;;13.80;67.30;;;;;;4144298;28;19936;-81
2023/06/27 04:11:43;;;;;;;;;;;13.90;67.60;;;;;;4160058;28;19965;-84
2023/06/27 04:14:04;;;;;;;;;;;13.90;67.90;;;;;;4164797;28;19945;-82
2023/06/27 04:16:25;;;;;;;;;;;14.00;68.20;;;;;;4143821;28;19917;-80
2023/06/27 04:18:45;;;;;;;;;;;14.10;68.60;;;;;;4150206;28;20438;-82
2023/06/27 04:21:06;;;;;;;;;;;14.20;68.50;;;;;;4163244;28;20375;-82
2023/06/27 04:23:30;;;;;;;;;;;14.20;68.70;;;;;;4150847;28;19917;-83
2023/06/27 04:26:04;;;;;;;;;;;14.30;69.50;;;;;;4151656;28;20533;-82
2023/06/27 04:28:04;;;;;;;;;;;14.40;69.20;;;;;;4132455;28;20463;-83
2023/06/27 04:30:05;;;;;;;;;;;14.50;69.60;;;;;;4144262;28;19926;-83
2023/06/27 04:32:07;;;;;;;;;;;14.50;69.40;;;;;;4133003;28;19949;-82
2023/06/27 04:34:08;;;;;;;;;;;14.60;69.60;;;;;;4147749;28;19913;-83
2023/06/27 04:36:09;;;;;;;;;;;14.70;69.30;;;;;;4132489;28;20388;-84
2023/06/27 04:38:14;;;;;;;;;;;14.80;69.30;;;;;;4146245;28;19906;-83
2023/06/27 04:40:15;;;;;;;;;;;14.80;69.10;;;;;;4149542;28;20024;-83
2023/06/27 04:42:16;;;;;;;;;;;14.90;68.80;;;;;;4142699;28;19921;-83
2023/06/27 04:44:17;;;;;;;;;;;14.90;68.70;;;;;;4146348;28;19924;-84
2023/06/27 04:46:18;;;;;;;;;;;15.00;68.90;;;;;;4129137;28;19918;-82
2023/06/27 04:48:18;;;;;;;;;;;15.10;69.30;;;;;;4127631;28;19915;-84
2023/06/27 04:50:19;;;;;;;;;;;15.20;68.50;;;;;;4141130;28;19964;-82
2023/06/27 04:52:19;;;;;;;;;;;15.30;68.60;;;;;;4142525;28;19956;-83
2023/06/27 04:54:21;;;;;;;;;;;15.40;68.50;;;;;;4145282;28;19932;-82
2023/06/27 04:56:22;;;;;;;;;;;15.40;68.50;;;;;;4145230;28;19917;-82
2023/06/27 04:58:23;;;;;;;;;;;15.50;68.20;;;;;;4145315;28;19928;-83
2023/06/27 05:00:24;;;;;;;;;;;15.60;67.90;;;;;;4131072;28;19925;-80
2023/06/27 05:02:24;;;;;;;;;;;15.60;66.80;;;;;;4147116;28;19913;-83
2023/06/27 05:04:25;;;;;;;;;;;15.70;66.50;;;;;;4152186;28;19917;-85
2023/06/27 05:06:26;;;;;;;;;;;15.80;66.80;;;;;;4133785;28;19938;-83
2023/06/27 05:08:26;;;;;;;;;;;15.80;66.80;;;;;;4161079;28;19922;-83
2023/06/27 05:10:27;;;;;;;;;;;15.90;66.40;;;;;;4161047;28;19955;-83
2023/06/27 05:12:28;;;;;;;;;;;16.00;66.10;;;;;;4146807;28;19917;-81
2023/06/27 05:14:29;;;;;;;;;;;16.10;66.20;;;;;;4129447;28;19924;-82
2023/06/27 05:16:29;;;;;;;;;;;16.20;65.50;;;;;;4163005;28;19913;-83
2023/06/27 05:18:30;;;;;;;;;;;16.20;65.10;;;;;;4142617;28;20733;-83
2023/06/27 05:20:31;;;;;;;;;;;16.30;65.10;;;;;;4125880;28;19922;-83
2023/06/27 05:22:31;;;;;;;;;;;16.30;64.90;;;;;;4161149;28;19921;-83
2023/06/27 05:24:33;;;;;;;;;;;16.40;64.70;;;;;;4161693;28;19921;-83
2023/06/27 05:26:37;;;;;;;;;;;16.40;64.40;;;;;;4129923;28;19953;-83
2023/06/27 05:28:39;;;;;;;;;;;16.50;64.60;;;;;;4161428;28;19936;-84
2023/06/27 05:30:39;;;;;;;;;;;16.50;64.60;;;;;;4130880;28;20154;-83
2023/06/27 05:32:40;;;;;;;;;;;16.60;64.50;;;;;;4162840;28;19948;-83
2023/06/27 05:34:40;;;;;;;;;;;16.70;64.60;;;;;;4145652;28;19917;-82
2023/06/27 05:36:41;;;;;;;;;;;16.70;64.50;;;;;;4123761;28;19921;-82
2023/06/27 05:38:42;;;;;;;;;;;16.80;64.20;;;;;;4145586;28;19968;-82
2023/06/27 05:40:54;;;;;;;;;;;16.80;63.90;;;;;;4142683;28;19953;-81
2023/06/27 05:42:55;;;;;;;;;;;16.90;63.20;;;;;;4159823;28;20351;-84
2023/06/27 05:44:55;;;;;;;;;;;17.00;63.00;;;;;;4130486;28;19918;-82
2023/06/27 05:46:56;;;;;;;;;;;17.10;62.70;;;;;;4147695;28;19921;-84
2023/06/27 05:48:57;;;;;;;;;;;17.10;62.60;;;;;;4131086;28;19913;-83
2023/06/27 05:50:58;;;;;;;;;;;17.10;62.60;;;;;;4146424;28;19910;-84
2023/06/27 05:52:58;;;;;;;;;;;17.20;62.60;;;;;;4146358;28;19921;-81
2023/06/27 05:54:59;;;;;;;;;;;17.20;62.50;;;;;;4130767;28;20422;-82
2023/06/27 05:57:05;;;;;;;;;;;17.30;62.60;;;;;;4131402;28;20391;-83
2023/06/27 05:59:07;;;;;;;;;;;17.30;61.90;;;;;;4149662;28;19957;-82
2023/06/27 06:01:08;;;;;;;;;;;17.40;62.00;;;;;;4143851;28;19922;-84
2023/06/27 06:03:08;;;;;;;;;;;17.50;61.70;;;;;;4146769;28;19922;-80
2023/06/27 06:05:10;;;;;;;;;;;17.50;61.80;;;;;;4134592;28;19906;-83
2023/06/27 06:07:11;;;;;;;;;;;17.60;61.30;;;;;;4150092;28;20407;-83
2023/06/27 06:09:14;;;;;;;;;;;17.60;60.90;;;;;;4145233;28;19948;-83
2023/06/27 06:11:15;;;;;;;;;;;17.60;60.30;;;;;;4127652;28;20275;-85
2023/06/27 06:13:16;;;;;;;;;;;17.70;59.90;;;;;;4170142;28;19909;-83
2023/06/27 06:15:17;;;;;;;;;;;17.80;60.40;;;;;;4144373;28;19969;-83
2023/06/27 06:17:17;;;;;;;;;;;17.80;60.20;;;;;;4128579;28;19977;-82
2023/06/27 06:19:18;;;;;;;;;;;17.90;60.10;;;;;;4128625;28;19914;-82
2023/06/27 06:21:21;;;;;;;;;;;17.90;60.20;;;;;;4131361;28;19913;-83
2023/06/27 06:23:22;;;;;;;;;;;18.00;60.30;;;;;;4129657;28;20066;-81
2023/06/27 06:25:25;;;;;;;;;;;18.00;59.90;;;;;;4127243;28;19913;-82
2023/06/27 06:27:26;;;;;;;;;;;18.10;59.60;;;;;;4132338;28;20380;-83
2023/06/27 06:29:27;;;;;;;;;;;18.20;59.90;;;;;;4146842;28;19913;-84
2023/06/27 06:31:27;;;;;;;;;;;18.20;59.20;;;;;;4147047;28;19909;-83
2023/06/27 06:33:28;;;;;;;;;;;18.20;58.50;;;;;;4144094;28;20532;-80
2023/06/27 06:35:29;;;;;;;;;;;18.20;58.20;;;;;;4128617;28;19921;-84
2023/06/27 06:37:29;;;;;;;;;;;18.20;57.90;;;;;;4131300;28;19910;-83
2023/06/27 06:39:50;;;;;;;;;;;18.20;57.50;;;;;;4161504;28;19984;-82
2023/06/27 06:42:11;;;;;;;;;;;18.20;57.20;;;;;;4147018;28;19917;-82
2023/06/27 06:44:11;;;;;;;;;;;18.20;57.10;;;;;;4144675;28;19980;-84
2023/06/27 06:48:36;;;;;;;;;;;18.10;57.40;;;;;;4144446;28;19930;-91
2023/06/27 06:50:56;;;;;;;;;;;18.10;57.80;;;;;;4153491;28;19929;-93
2023/06/27 06:53:32;;;;;;;;;;;18.10;58.20;;;;;;4158961;28;21749;-92
2023/06/27 06:55:58;;;;;;;;;;;18.10;58.60;;;;;;4131807;28;20304;-91
2023/06/27 06:58:19;;;;;;;;;;;18.20;58.50;;;;;;4139416;28;19925;-91
2023/06/27 07:00:52;;;;;;;;;;;18.20;58.30;;;;;;4100368;28;20494;-91
2023/06/27 07:03:20;;;;;;;;;;;18.30;58.10;;;;;;4092829;28;19920;-93
2023/06/27 07:05:20;;;;;;;;;;;18.30;57.60;;;;;;4132389;28;19918;-92
2023/06/27 07:07:24;;;;;;;;;;;18.40;57.80;;;;;;4132884;28;19913;-93
2023/06/27 07:09:28;;;;;;;;;;;18.40;57.70;;;;;;4119958;28;20008;-93
2023/06/27 07:11:44;;;;;;;;;;;18.40;57.80;;;;;;4129064;28;19914;-91
2023/06/27 07:13:53;;;;;;;;;;;18.40;58.20;;;;;;4122388;28;20047;-93
2023/06/27 07:16:26;;;;;;;;;;;18.40;58.40;;;;;;4125301;28;19921;-90
2023/06/27 07:18:32;;;;;;;;;;;18.20;58.40;;;;;;4116780;28;19910;-92
2023/06/27 07:20:53;;;;;;;;;;;18.20;58.20;;;;;;4126949;28;19921;-90
2023/06/27 07:22:54;;;;;;;;;;;18.10;58.40;;;;;;4130506;28;19976;-94
2023/06/27 07:25:43;;;;;;;;;;;;;;;;;;;;;
2023/06/27 07:27:59;;;;;;;;;;;;;;;;;;;;;
2023/06/27 07:36:57;;;;;;;;;;;17.70;61.80;;;;;;4070036;29;19926;-92
2023/06/27 07:39:00;;;;;;;;;;;17.60;61.40;;;;;;4061987;29;20095;-94
2023/06/27 07:42:04;;;;;;;;;;;;;;;;;;;;;
2023/06/27 07:47:22;;;;;;;;;;;17.70;60.60;;;;;;4041126;29;20378;-93
2023/06/27 07:50:01;;;;;;;;;;;17.70;58.40;;;;;;4067828;29;20095;-93
2023/06/27 07:52:18;;;;;;;;;;;;;;;;;;;;;
2023/06/27 07:54:51;;;;;;;;;;;17.70;57.80;;;;;;4041334;29;20637;-93
2023/06/27 07:56:56;;;;;;;;;;;17.60;57.80;;;;;;3995081;29;19967;-93
2023/06/27 07:59:35;;;;;;;;;;;17.60;57.00;;;;;;4012434;29;19919;-92
2023/06/27 08:01:50;;;;;;;;;;;17.60;57.00;;;;;;4121244;23;20307;-93
2023/06/27 08:03:53;;;;;;;;;;;17.60;58.00;;;;;;4174131;23;19913;-92
2023/06/27 08:06:15;;;;;;;;;;;17.70;57.20;;;;;;4160498;28;19917;-90
2023/06/27 08:11:27;;;;;;;;;;;17.70;55.20;;;;;;4158706;28;19917;-93
2023/06/27 08:13:55;;;;;;;;;;;17.70;55.50;;;;;;4150020;28;20059;-94
2023/06/27 08:16:25;;;;;;;;;;;17.80;55.10;;;;;;4168931;28;19917;-93
2023/06/27 08:18:52;;;;;;;;;;;17.90;54.90;;;;;;4160762;28;19973;-91
2023/06/27 08:21:26;;;;;;;;;;;17.90;55.10;;;;;;4187398;28;20471;-92
2023/06/27 08:23:47;;;;;;;;;;;18.00;55.20;;;;;;4188328;28;19965;-93
2023/06/27 08:26:17;;;;;;;;;;;18.00;55.00;;;;;;4176901;28;19917;-95
2023/06/27 08:28:38;;;;;;;;;;;18.10;55.40;;;;;;4191130;23;19929;-81
2023/06/27 08:30:59;;;;;;;;;;;18.20;56.00;;;;;;4160365;28;19968;-83
2023/06/27 08:33:00;;;;;;;;;;;18.30;55.80;;;;;;4159392;28;20318;-83
2023/06/27 08:35:06;;;;;;;;;;;18.40;55.70;;;;;;4158926;28;19917;-82
2023/06/27 08:37:29;;;;;;;;;;;18.40;55.40;;;;;;4172506;28;19924;-83
2023/06/27 08:39:51;;;;;;;;;;;18.60;55.00;;;;;;4177778;28;20012;-82
2023/06/27 08:42:15;;;;;;;;;;;18.60;54.70;;;;;;4165181;28;19917;-83
2023/06/27 08:44:35;;;;;;;;;;;18.50;54.00;;;;;;4179186;28;19916;-82
2023/06/27 08:46:57;;;;;;;;;;;18.60;54.10;;;;;;4182054;28;19936;-85
2023/06/27 08:49:24;;;;;;;;;;;18.60;54.00;;;;;;4174263;28;19955;-81
2023/06/27 08:51:45;;;;;;;;;;;18.70;53.80;;;;;;4164755;28;20051;-82
2023/06/27 08:54:12;;;;;;;;;;;18.70;53.50;;;;;;4179830;28;19966;-84
2023/06/27 08:56:33;;;;;;;;;;;18.80;53.70;;;;;;4165665;28;19920;-84
2023/06/27 08:58:59;;;;;;;;;;;18.80;53.20;;;;;;4163112;28;19980;-83
2023/06/27 09:01:21;;;;;;;;;;;18.80;52.70;;;;;;4165933;28;19927;-82
2023/06/27 09:03:42;;;;;;;;;;;18.80;53.10;;;;;;4162812;28;20153;-82
2023/06/27 09:05:47;;;;;;;;;;;18.80;53.80;;;;;;4143518;28;19913;-83
2023/06/27 09:08:08;;;;;;;;;;;18.80;54.40;;;;;;4162569;28;21563;-82
2023/06/27 09:10:29;;;;;;;;;;;18.80;54.90;;;;;;4173962;28;19920;-83
2023/06/27 09:12:52;;;;;;;;;;;18.80;55.30;;;;;;4172518;28;19948;-84
2023/06/27 09:15:14;;;;;;;;;;;18.90;55.30;;;;;;4164381;28;19936;-84
2023/06/27 09:17:35;;;;;;;;;;;19.00;55.30;;;;;;4176371;28;19920;-84
2023/06/27 09:19:55;;;;;;;;;;;19.10;55.40;;;;;;4180871;28;19926;-80
2023/06/27 09:22:18;;;;;;;;;;;19.10;55.10;;;;;;4180329;28;19948;-83
2023/06/27 09:24:40;;;;;;;;;;;19.20;54.20;;;;;;4162685;28;20041;-84
2023/06/27 09:27:01;;;;;;;;;;;19.20;53.80;;;;;;4165914;28;19956;-82
2023/06/27 09:29:29;;;;;;;;;;;19.20;53.10;;;;;;4164816;28;19947;-83
2023/06/27 09:32:03;;;;;;;;;;;19.20;52.90;;;;;;4166024;28;19917;-84
2023/06/27 09:34:16;;;;;;;;;;;19.30;52.60;;;;;;4161601;28;19940;-83
2023/06/27 09:36:32;;;;;;;;;;;19.30;52.60;;;;;;4160870;28;20322;-84
2023/06/27 09:38:33;;;;;;;;;;;19.30;52.40;;;;;;4143996;28;19924;-84
2023/06/27 09:40:37;;;;;;;;;;;19.30;52.40;;;;;;4162060;28;19925;-82
2023/06/27 09:42:46;;;;;;;;;;;19.40;52.40;;;;;;4163045;28;19955;-83
2023/06/27 09:44:47;;;;;;;;;;;19.40;52.00;;;;;;4162410;28;20004;-83
2023/06/27 09:46:48;;;;;;;;;;;19.50;51.80;;;;;;4165998;28;20449;-82
2023/06/27 09:48:51;;;;;;;;;;;19.50;51.90;;;;;;4147075;28;19953;-81
2023/06/27 09:50:57;;;;;;;;;;;19.50;50.70;;;;;;4155192;28;20095;-81
2023/06/27 09:56:35;;;;;;;;;;;19.70;50.50;;;;;;4175029;28;19956;-83
2023/06/27 10:05:05;;;;;;;;;;;20.00;48.20;;;;;;4075287;29;19947;-81
2023/06/27 10:07:40;;;;;;;;;;;20.00;48.20;;;;;;4132001;23;19930;-84
2023/06/27 10:09:46;;;;;;;;;;;20.10;47.40;;;;;;4046989;29;20309;-81
2023/06/27 10:11:49;;;;;;;;;;;20.10;47.10;;;;;;4107429;28;20272;-82
2023/06/27 10:14:31;;;;;;;;;;;20.10;46.90;;;;;;4114404;28;19917;-82
2023/06/27 10:16:32;;;;;;;;;;;20.10;46.70;;;;;;4129828;28;19917;-83
2023/06/27 10:18:33;;;;;;;;;;;20.10;46.90;;;;;;4079371;29;20361;-82
2023/06/27 10:20:34;;;;;;;;;;;20.10;46.30;;;;;;4127362;28;19949;-83
2023/06/27 10:22:37;;;;;;;;;;;20.20;46.80;;;;;;4093769;28;19997;-82
2023/06/27 10:24:42;;;;;;;;;;;20.20;46.90;;;;;;4105649;28;20169;-82
2023/06/27 10:26:55;;;;;;;;;;;20.30;47.50;;;;;;4107352;28;20038;-82
2023/06/27 10:28:56;;;;;;;;;;;20.30;46.80;;;;;;4106986;28;19917;-84
2023/06/27 10:30:57;;;;;;;;;;;20.40;46.60;;;;;;4125795;28;19917;-82
2023/06/27 10:33:08;;;;;;;;;;;20.50;46.10;;;;;;4098505;28;19958;-83
2023/06/27 10:35:11;;;;;;;;;;;20.50;45.70;;;;;;4116666;28;20410;-82
2023/06/27 10:37:22;;;;;;;;;;;20.50;46.20;;;;;;4100852;28;19953;-82
2023/06/27 10:39:54;;;;;;;;;;;20.50;45.00;;;;;;4111050;28;20459;-84
2023/06/27 10:41:58;;;;;;;;;;;20.50;45.10;;;;;;4090610;28;20555;-82
2023/06/27 10:44:19;;;;;;;;;;;20.50;44.80;;;;;;4129804;28;19933;-82
2023/06/27 10:46:27;;;;;;;;;;;20.50;45.40;;;;;;4091488;28;20422;-84
2023/06/27 10:48:58;;;;;;;;;;;20.60;45.20;;;;;;4124203;28;20004;-84
2023/06/27 10:51:20;;;;;;;;;;;20.60;45.50;;;;;;4111107;28;20123;-83
2023/06/27 10:54:00;;;;;;;;;;;20.60;45.30;;;;;;4114741;28;19926;-82
2023/06/27 10:56:28;;;;;;;;;;;20.60;45.40;;;;;;4126526;28;19906;-84
2023/06/27 10:59:08;;;;;;;;;;;20.60;45.20;;;;;;4115010;28;19921;-83
2023/06/27 11:01:34;;;;;;;;;;;20.60;45.40;;;;;;4109888;28;19991;-83
2023/06/27 11:03:58;;;;;;;;;;;20.60;45.50;;;;;;4111464;28;19918;-83
2023/06/27 11:06:19;;;;;;;;;;;20.60;45.30;;;;;;4111609;28;19940;-82
2023/06/27 11:08:40;;;;;;;;;;;20.60;45.70;;;;;;4126479;28;19930;-84
2023/06/27 11:11:25;;;;;;;;;;;20.60;45.40;;;;;;4125587;28;20200;-83
2023/06/27 11:13:46;;;;;;;;;;;20.60;45.40;;;;;;4124607;28;19924;-83
2023/06/27 11:16:06;;;;;;;;;;;20.70;44.90;;;;;;4113002;28;20170;-82
2023/06/27 11:18:27;;;;;;;;;;;20.70;45.40;;;;;;4112749;28;19921;-82
2023/06/27 11:20:48;;;;;;;;;;;20.70;45.00;;;;;;4124566;28;20001;-82
2023/06/27 11:23:11;;;;;;;;;;;20.60;44.70;;;;;;4108985;28;19950;-83
2023/06/27 11:25:36;;;;;;;;;;;20.60;44.60;;;;;;4108398;28;19918;-84
2023/06/27 11:27:57;;;;;;;;;;;20.60;45.00;;;;;;4124174;28;19918;-83
2023/06/27 11:30:19;;;;;;;;;;;20.60;44.90;;;;;;4115487;28;19995;-81
2023/06/27 11:32:39;;;;;;;;;;;20.60;44.90;;;;;;4121165;28;19921;-82
2023/06/27 11:35:00;;;;;;;;;;;20.50;44.90;;;;;;4108191;28;19965;-82
2023/06/27 11:37:20;;;;;;;;;;;20.60;45.80;;;;;;4109634;28;19922;-83
2023/06/27 11:39:21;;;;;;;;;;;20.50;45.20;;;;;;4108471;28;20457;-83
2023/06/27 11:41:22;;;;;;;;;;;20.60;45.30;;;;;;4124895;28;19918;-83
2023/06/27 11:43:22;;;;;;;;;;;20.50;44.70;;;;;;4106293;28;20001;-82
2023/06/27 11:45:23;;;;;;;;;;;20.50;44.80;;;;;;4094110;28;20040;-84
2023/06/27 11:47:24;;;;;;;;;;;20.50;44.80;;;;;;4109170;28;19922;-83
2023/06/27 11:49:25;;;;;;;;;;;20.50;45.20;;;;;;4127477;28;19914;-83
2023/06/27 11:51:36;;;;;;;;;;;20.50;44.50;;;;;;4105250;28;20308;-83
2023/06/27 11:53:38;;;;;;;;;;;20.40;45.20;;;;;;4107783;28;19975;-81
2023/06/27 11:55:41;;;;;;;;;;;20.40;44.70;;;;;;4111124;28;20006;-85
2023/06/27 11:57:54;;;;;;;;;;;20.40;44.90;;;;;;4103824;28;19989;-84
2023/06/27 11:59:55;;;;;;;;;;;20.40;44.80;;;;;;4102921;28;20077;-82
2023/06/27 12:02:05;;;;;;;;;;;20.40;45.10;;;;;;4102833;28;20154;-84
2023/06/27 12:04:17;;;;;;;;;;;20.40;45.40;;;;;;4120189;28;19914;-82
2023/06/27 12:06:28;;;;;;;;;;;20.40;44.80;;;;;;4119215;28;20371;-81
2023/06/27 12:08:30;;;;;;;;;;;20.50;45.20;;;;;;4107509;28;19961;-83
2023/06/27 12:10:31;;;;;;;;;;;20.50;45.40;;;;;;4120219;28;19926;-82
2023/06/27 12:12:41;;;;;;;;;;;20.50;45.90;;;;;;4093457;28;20252;-82
2023/06/27 12:14:49;;;;;;;;;;;20.60;45.60;;;;;;4093220;28;19926;-82
2023/06/27 12:16:50;;;;;;;;;;;20.70;45.20;;;;;;4089439;28;19922;-83
2023/06/27 12:18:51;;;;;;;;;;;20.70;44.90;;;;;;4120654;28;20045;-83
2023/06/27 12:20:52;;;;;;;;;;;20.70;44.50;;;;;;4124249;28;20036;-83
2023/06/27 12:22:52;;;;;;;;;;;20.70;43.80;;;;;;4122174;28;19925;-83
2023/06/27 12:24:53;;;;;;;;;;;20.70;43.40;;;;;;4089339;28;19922;-83
2023/06/27 12:26:53;;;;;;;;;;;20.70;43.90;;;;;;4117163;28;20268;-82
2023/06/27 12:28:58;;;;;;;;;;;20.70;43.80;;;;;;4107435;28;19949;-82
2023/06/27 12:30:58;;;;;;;;;;;20.70;43.80;;;;;;4091684;28;19922;-83
2023/06/27 12:33:00;;;;;;;;;;;20.70;44.20;;;;;;4107433;28;19950;-85
2023/06/27 12:35:01;;;;;;;;;;;20.70;44.00;;;;;;4112379;28;19921;-82
2023/06/27 12:37:02;;;;;;;;;;;20.70;44.60;;;;;;4092827;28;20284;-85
2023/06/27 12:39:23;;;;;;;;;;;20.70;43.40;;;;;;4110268;28;19918;-84
2023/06/27 12:41:37;;;;;;;;;;;20.80;43.40;;;;;;4097370;28;19923;-84
2023/06/27 12:43:58;;;;;;;;;;;20.80;43.70;;;;;;4122611;28;19918;-83
2023/06/27 12:46:19;;;;;;;;;;;20.90;43.90;;;;;;4129484;28;19960;-83
2023/06/27 12:48:43;;;;;;;;;;;20.90;44.20;;;;;;4125326;28;20400;-81
2023/06/27 12:51:03;;;;;;;;;;;21.00;42.60;;;;;;4125228;28;19921;-80
2023/06/27 12:53:24;;;;;;;;;;;21.00;42.10;;;;;;4129163;28;19918;-84
2023/06/27 12:55:27;;;;;;;;;;;21.00;42.10;;;;;;4097334;28;19944;-83
2023/06/27 12:57:48;;;;;;;;;;;21.00;42.30;;;;;;4110948;28;20517;-84
2023/06/27 13:00:09;;;;;;;;;;;21.00;42.40;;;;;;4128807;28;19913;-82
2023/06/27 13:02:29;;;;;;;;;;;21.00;41.90;;;;;;4129652;28;19997;-85
2023/06/27 13:04:50;;;;;;;;;;;21.00;42.30;;;;;;4129371;28;19970;-83
2023/06/27 13:07:11;;;;;;;;;;;21.00;42.30;;;;;;4126493;28;19967;-83
2023/06/27 13:09:20;;;;;;;;;;;21.00;42.10;;;;;;4111758;28;20388;-83
2023/06/27 13:11:40;;;;;;;;;;;21.00;42.20;;;;;;4128716;28;19917;-84